Time;durP1;ratioP1;P1;durP2;ratioP2;P2;SDS_P1;SDS_P2;PMS_P1;PMS_P2;Temp;Humidity;BMP_temperature;BMP_pressure;BME280_temperature;BME280_humidity;BME280_pressure;Samples;Min_cycle;Max_cycle;Signal;HPM_P1;HPM_P2
2023/07/25 00:00:35;;;;;;;9.57;5.13;;;;;;;-145.07;100.00;61000.34;5074924;28;20143;-59
2023/07/25 00:03:01;;;;;;;10.98;5.55;;;;;;;-145.07;100.00;61000.34;5070919;28;20478;-59
2023/07/25 00:05:28;;;;;;;7.85;4.20;;;;;;;-145.07;100.00;61000.34;5085462;28;20059;-59
2023/07/25 00:07:54;;;;;;;9.27;5.15;;;;;;;-145.07;100.00;61000.34;5086633;28;20147;-59
2023/07/25 00:10:21;;;;;;;14.38;5.47;;;;;;;-145.07;100.00;61000.34;5076863;28;20048;-59
2023/07/25 00:12:52;;;;;;;7.97;4.85;;;;;;;-145.07;100.00;61000.34;5067386;28;20080;-59
2023/07/25 00:15:19;;;;;;;;;;;;;;;-145.07;100.00;61000.34;5083791;28;20188;-59
2023/07/25 00:17:46;;;;;;;9.13;5.78;;;;;;;-145.07;100.00;61000.34;5087524;28;19924;-59
2023/07/25 00:20:12;;;;;;;9.73;5.60;;;;;;;-145.07;100.00;61000.34;5086490;28;20054;-59
2023/07/25 00:22:39;;;;;;;9.35;5.47;;;;;;;-145.07;100.00;61000.34;5087721;28;20071;-58
2023/07/25 00:25:06;;;;;;;6.15;4.60;;;;;;;-145.07;100.00;61000.34;5086334;28;20083;-58
2023/07/25 00:27:33;;;;;;;10.32;5.22;;;;;;;-145.07;100.00;61000.34;5083738;28;20052;-58
2023/07/25 00:29:59;;;;;;;7.85;5.40;;;;;;;-145.07;100.00;61000.34;5076627;28;20045;-59
2023/07/25 00:32:26;;;;;;;11.15;5.88;;;;;;;-145.07;100.00;61000.34;5085228;28;20451;-58
2023/07/25 00:34:53;;;;;;;11.63;6.97;;;;;;;-145.07;100.00;61000.34;5094146;28;20166;-58
2023/07/25 00:37:19;;;;;;;10.30;6.90;;;;;;;-145.07;100.00;61000.34;5082288;28;20117;-59
2023/07/25 00:39:46;;;;;;;16.00;8.60;;;;;;;-145.07;100.00;61000.34;5088936;28;20048;-59
2023/07/25 00:42:13;;;;;;;9.27;6.32;;;;;;;-145.07;100.00;61000.34;5088637;28;20144;-58
2023/07/25 00:44:39;;;;;;;8.95;5.68;;;;;;;-145.07;100.00;61000.34;5085951;28;20072;-59
2023/07/25 00:47:06;;;;;;;10.02;6.28;;;;;;;-145.07;100.00;61000.34;5088252;28;20055;-58
2023/07/25 00:49:33;;;;;;;12.88;6.15;;;;;;;-145.07;100.00;61000.34;5090433;28;20495;-59
2023/07/25 00:52:00;;;;;;;7.70;5.72;;;;;;;-145.07;100.00;61000.34;5091401;28;20127;-59
2023/07/25 00:54:27;;;;;;;10.30;6.38;;;;;;;-145.07;100.00;61000.34;5088216;28;20054;-60
2023/07/25 00:56:53;;;;;;;13.07;7.97;;;;;;;-145.07;100.00;61000.34;5091027;28;20135;-58
2023/07/25 00:59:20;;;;;;;10.13;6.53;;;;;;;-145.07;100.00;61000.34;5091005;28;20075;-58
2023/07/25 01:01:46;;;;;;;8.93;5.68;;;;;;;-145.07;100.00;61000.34;5084877;28;20451;-59
2023/07/25 01:04:13;;;;;;;9.50;6.88;;;;;;;-145.07;100.00;61000.34;5089256;28;20044;-58
2023/07/25 01:06:40;;;;;;;11.30;7.25;;;;;;;-145.07;100.00;61000.34;5094791;28;20044;-58
2023/07/25 01:09:07;;;;;;;10.00;6.30;;;;;;;-145.07;100.00;61000.34;5085076;28;20052;-58
2023/07/25 01:11:34;;;;;;;11.50;7.43;;;;;;;-145.07;100.00;61000.34;5080504;28;20044;-59
2023/07/25 01:14:00;;;;;;;12.88;7.88;;;;;;;-145.07;100.00;61000.34;5093054;28;20099;-58
2023/07/25 01:16:28;;;;;;;11.63;6.97;;;;;;;-145.07;100.00;61000.34;5105629;28;20058;-58
2023/07/25 01:18:56;;;;;;;12.48;7.18;;;;;;;-145.07;100.00;61000.34;5102385;27;20059;-59
2023/07/25 01:21:23;;;;;;;8.95;6.80;;;;;;;-145.07;100.00;61000.34;5091101;28;20091;-58
2023/07/25 01:23:49;;;;;;;9.88;6.28;;;;;;;-145.07;100.00;61000.34;5087886;28;20131;-58
2023/07/25 01:26:16;;;;;;;12.60;6.40;;;;;;;-145.07;100.00;61000.34;5094497;28;20044;-58
2023/07/25 01:28:43;;;;;;;10.90;7.40;;;;;;;-145.07;100.00;61000.34;5090005;28;20587;-58
2023/07/25 01:31:10;;;;;;;14.43;7.63;;;;;;;-145.07;100.00;61000.34;5084774;28;20047;-58
2023/07/25 01:33:36;;;;;;;18.60;7.68;;;;;;;-145.07;100.00;61000.34;5099593;28;20566;-58
2023/07/25 01:36:03;;;;;;;10.27;7.28;;;;;;;-145.07;100.00;61000.34;5095003;28;20650;-58
2023/07/25 01:38:30;;;;;;;10.20;7.35;;;;;;;-145.07;100.00;61000.34;5090089;28;20082;-59
2023/07/25 01:40:56;;;;;;;12.95;8.07;;;;;;;-145.07;100.00;61000.34;5087932;28;20105;-58
2023/07/25 01:43:23;;;;;;;9.93;6.85;;;;;;;-145.07;100.00;61000.34;5088883;28;20083;-59
2023/07/25 01:45:49;;;;;;;11.93;7.82;;;;;;;-145.07;100.00;61000.34;5088646;28;20050;-59
2023/07/25 01:48:16;;;;;;;14.40;7.30;;;;;;;-145.07;100.00;61000.34;5108164;28;20621;-58
2023/07/25 01:50:42;;;;;;;13.85;9.07;;;;;;;-145.07;100.00;61000.34;5085701;28;20048;-59
2023/07/25 01:53:09;;;;;;;10.93;7.25;;;;;;;-145.07;100.00;61000.34;5095352;28;20576;-58
2023/07/25 01:55:37;;;;;;;12.65;7.72;;;;;;;-145.07;100.00;61000.34;5097464;28;20438;-59
2023/07/25 01:58:03;;;;;;;15.30;8.75;;;;;;;-145.07;100.00;61000.34;5100165;28;20063;-58
2023/07/25 02:00:30;;;;;;;11.77;8.50;;;;;;;-145.07;100.00;61000.34;5082749;28;20071;-59
2023/07/25 02:02:56;;;;;;;14.98;8.25;;;;;;;-145.07;100.00;61000.34;5101196;28;20083;-58
2023/07/25 02:05:23;;;;;;;10.52;7.85;;;;;;;-145.07;100.00;61000.34;5088514;28;20083;-59
2023/07/25 02:07:49;;;;;;;11.23;8.50;;;;;;;-145.07;100.00;61000.34;5094474;28;20395;-58
2023/07/25 02:10:16;;;;;;;15.07;8.27;;;;;;;-145.07;100.00;61000.34;5088888;28;20484;-59
2023/07/25 02:12:43;;;;;;;12.13;9.00;;;;;;;-145.07;100.00;61000.34;5088144;28;20048;-58
2023/07/25 02:15:10;;;;;;;13.00;8.35;;;;;;;-145.07;100.00;61000.34;5095395;28;20357;-58
2023/07/25 02:17:37;;;;;;;15.85;7.65;;;;;;;-145.07;100.00;61000.34;5086748;28;20047;-58
2023/07/25 02:20:04;;;;;;;12.32;7.90;;;;;;;-145.07;100.00;61000.34;5089162;28;20094;-59
2023/07/25 02:22:31;;;;;;;14.07;8.55;;;;;;;-145.07;100.00;61000.34;5089011;28;20136;-59
2023/07/25 02:24:57;;;;;;;12.13;7.90;;;;;;;-145.07;100.00;61000.34;5087634;28;20384;-59
2023/07/25 02:27:24;;;;;;;10.73;8.02;;;;;;;-145.07;100.00;61000.34;5087824;28;20055;-59
2023/07/25 02:29:50;;;;;;;11.00;6.78;;;;;;;-145.07;100.00;61000.34;5089774;28;20143;-59
2023/07/25 02:32:17;;;;;;;12.65;6.88;;;;;;;-145.07;100.00;61000.34;5089055;28;20076;-59
2023/07/25 02:34:44;;;;;;;12.85;7.25;;;;;;;-145.07;100.00;61000.34;5087555;28;20087;-59
2023/07/25 02:37:10;;;;;;;14.32;6.78;;;;;;;-145.07;100.00;61000.34;5088714;28;20054;-59
2023/07/25 02:39:37;;;;;;;14.02;6.90;;;;;;;-145.07;100.00;61000.34;5088688;28;20062;-59
2023/07/25 02:42:04;;;;;;;15.38;7.32;;;;;;;-145.07;100.00;61000.34;5088569;28;20505;-59
2023/07/25 02:44:30;;;;;;;13.10;7.20;;;;;;;-145.07;100.00;61000.34;5083952;28;20051;-60
2023/07/25 02:46:57;;;;;;;13.45;6.43;;;;;;;-145.07;100.00;61000.34;5087320;28;20075;-59
2023/07/25 02:49:23;;;;;;;10.57;5.68;;;;;;;-145.07;100.00;61000.34;5089332;28;20048;-59
2023/07/25 02:51:49;;;;;;;13.18;5.97;;;;;;;-145.07;100.00;61000.34;5105952;28;20560;-59
2023/07/25 02:54:16;;;;;;;9.70;6.85;;;;;;;-145.07;100.00;61000.34;5084291;28;20082;-59
2023/07/25 02:56:43;;;;;;;11.15;6.57;;;;;;;-145.07;100.00;61000.34;5092876;28;20039;-59
2023/07/25 02:59:09;;;;;;;10.15;5.63;;;;;;;-145.07;100.00;61000.34;5085857;28;20043;-59
2023/07/25 03:01:36;;;;;;;12.15;7.25;;;;;;;-145.07;100.00;61000.34;5086214;28;20123;-59
2023/07/25 03:04:02;;;;;;;7.65;5.95;;;;;;;-145.07;100.00;61000.34;5094265;28;20566;-59
2023/07/25 03:06:29;;;;;;;12.27;6.72;;;;;;;-145.07;100.00;61000.34;5099170;28;20058;-59
2023/07/25 03:08:55;;;;;;;11.45;6.97;;;;;;;-145.07;100.00;61000.34;5088106;28;20075;-59
2023/07/25 03:11:22;;;;;;;14.95;6.95;;;;;;;-145.07;100.00;61000.34;5086435;28;20048;-59
2023/07/25 03:13:48;;;;;;;7.88;6.10;;;;;;;-145.07;100.00;61000.34;5087984;28;20090;-59
2023/07/25 03:16:15;;;;;;;13.88;6.95;;;;;;;-145.07;100.00;61000.34;5089782;28;20050;-59
2023/07/25 03:18:41;;;;;;;12.82;6.60;;;;;;;-145.07;100.00;61000.34;5087902;28;20529;-59
2023/07/25 03:21:08;;;;;;;16.25;7.47;;;;;;;-145.07;100.00;61000.34;5087782;28;20055;-59
2023/07/25 03:23:34;;;;;;;11.40;6.55;;;;;;;-145.07;100.00;61000.34;5088765;28;20072;-59
2023/07/25 03:26:01;;;;;;;18.38;6.57;;;;;;;-145.07;100.00;61000.34;5096261;28;20060;-59
2023/07/25 03:28:27;;;;;;;14.40;6.55;;;;;;;-145.07;100.00;61000.34;5101077;28;20054;-59
2023/07/25 03:30:54;;;;;;;11.57;6.85;;;;;;;-145.07;100.00;61000.34;5087409;28;20047;-59
2023/07/25 03:33:21;;;;;;;13.10;7.07;;;;;;;-145.07;100.00;61000.34;5093582;28;20040;-59
2023/07/25 03:35:47;;;;;;;11.63;6.78;;;;;;;-145.07;100.00;61000.34;5094739;28;20057;-59
2023/07/25 03:38:14;;;;;;;17.83;6.82;;;;;;;-145.07;100.00;61000.34;5096768;28;20211;-59
2023/07/25 03:40:40;;;;;;;15.25;7.22;;;;;;;-145.07;100.00;61000.34;5088027;28;20079;-59
2023/07/25 03:43:07;;;;;;;23.92;7.53;;;;;;;-145.07;100.00;61000.34;5087276;28;20054;-59
2023/07/25 03:45:33;;;;;;;11.95;6.35;;;;;;;-145.07;100.00;61000.34;5087153;28;20597;-59
2023/07/25 03:48:00;;;;;;;19.25;7.28;;;;;;;-145.07;100.00;61000.34;5085449;28;20044;-59
2023/07/25 03:50:26;;;;;;;13.52;6.47;;;;;;;-145.07;100.00;61000.34;5088470;28;20063;-59
2023/07/25 03:52:53;;;;;;;11.25;6.72;;;;;;;-145.07;100.00;61000.34;5086075;28;20127;-59
2023/07/25 03:55:19;;;;;;;18.77;6.80;;;;;;;-145.07;100.00;61000.34;5088353;28;20050;-59
2023/07/25 03:57:46;;;;;;;11.48;6.57;;;;;;;-145.07;100.00;61000.34;5090120;28;20629;-59
2023/07/25 04:00:13;;;;;;;15.55;6.43;;;;;;;-145.07;100.00;61000.34;5093066;28;20052;-59
2023/07/25 04:02:39;;;;;;;13.57;6.47;;;;;;;-145.07;100.00;61000.34;5093270;28;20044;-58
2023/07/25 04:05:07;;;;;;;13.52;7.10;;;;;;;-145.07;100.00;61000.34;5090766;28;20480;-58
2023/07/25 04:07:37;;;;;;;18.15;7.07;;;;;;;-145.07;100.00;61000.34;5087179;28;20578;-58
2023/07/25 04:10:04;;;;;;;14.13;6.50;;;;;;;-145.07;100.00;61000.34;5089756;28;20605;-59
2023/07/25 04:12:30;;;;;;;14.70;7.32;;;;;;;-145.07;100.00;61000.34;5091083;28;20113;-58
2023/07/25 04:14:57;;;;;;;16.67;7.57;;;;;;;-145.07;100.00;61000.34;5090665;28;20530;-58
2023/07/25 04:17:24;;;;;;;16.13;7.30;;;;;;;-145.07;100.00;61000.34;5091134;28;20048;-59
2023/07/25 04:19:50;;;;;;;12.15;6.93;;;;;;;-145.07;100.00;61000.34;5089890;28;20396;-59
2023/07/25 04:22:17;;;;;;;9.15;5.45;;;;;;;-145.07;100.00;61000.34;5091599;28;20055;-58
2023/07/25 04:24:43;;;;;;;17.35;8.27;;;;;;;-145.07;100.00;61000.34;5090682;28;20036;-58
2023/07/25 04:27:10;;;;;;;13.18;6.80;;;;;;;-145.07;100.00;61000.34;5090848;28;20048;-59
2023/07/25 04:29:36;;;;;;;15.30;6.55;;;;;;;-145.07;100.00;61000.34;5089597;28;20048;-58
2023/07/25 04:32:03;;;;;;;14.73;7.13;;;;;;;-145.07;100.00;61000.34;5091936;28;20048;-58
2023/07/25 04:34:30;;;;;;;16.60;6.43;;;;;;;-145.07;100.00;61000.34;5090882;28;20047;-58
2023/07/25 04:36:56;;;;;;;16.25;6.30;;;;;;;-145.07;100.00;61000.34;5091472;28;20075;-59
2023/07/25 04:39:23;;;;;;;11.98;5.78;;;;;;;-145.07;100.00;61000.34;5088654;28;20055;-58
2023/07/25 04:41:49;;;;;;;10.57;5.45;;;;;;;-145.07;100.00;61000.34;5091565;28;20052;-58
2023/07/25 04:44:16;;;;;;;17.40;6.22;;;;;;;-145.07;100.00;61000.34;5090409;28;20047;-59
2023/07/25 04:46:42;;;;;;;11.23;4.78;;;;;;;-145.07;100.00;61000.34;5090950;28;20118;-58
2023/07/25 04:49:11;;;;;;;17.25;5.65;;;;;;;-145.07;100.00;61000.34;5082335;28;20376;-59
2023/07/25 04:51:40;;;;;;;14.35;5.10;;;;;;;-145.07;100.00;61000.34;5091084;28;20056;-58
2023/07/25 04:54:07;;;;;;;21.73;5.93;;;;;;;-145.07;100.00;61000.34;5090879;28;20213;-58
2023/07/25 04:56:34;;;;;;;10.63;5.97;;;;;;;-145.07;100.00;61000.34;5103331;28;20486;-58
2023/07/25 04:59:00;;;;;;;13.73;5.13;;;;;;;-145.07;100.00;61000.34;5090773;28;20083;-58
2023/07/25 05:01:27;;;;;;;11.63;4.13;;;;;;;-145.07;100.00;61000.34;5090680;28;20453;-58
2023/07/25 05:03:54;;;;;;;16.70;5.45;;;;;;;-145.07;100.00;61000.34;5091513;28;20040;-58
2023/07/25 05:06:20;;;;;;;15.35;5.00;;;;;;;-145.07;100.00;61000.34;5088770;28;20060;-58
2023/07/25 05:08:47;;;;;;;12.13;4.28;;;;;;;-145.07;100.00;61000.34;5089510;28;20663;-58
2023/07/25 05:11:14;;;;;;;14.15;5.57;;;;;;;-145.07;100.00;61000.34;5090449;28;20051;-58
2023/07/25 05:13:40;;;;;;;10.23;4.50;;;;;;;-145.07;100.00;61000.34;5089823;28;20053;-58
2023/07/25 05:16:07;;;;;;;9.68;4.40;;;;;;;-145.07;100.00;61000.34;5088534;28;20078;-58
2023/07/25 05:18:33;;;;;;;12.02;4.25;;;;;;;-145.07;100.00;61000.34;5090519;28;20052;-59
2023/07/25 05:21:00;;;;;;;14.10;5.32;;;;;;;-145.07;100.00;61000.34;5090234;28;20599;-58
2023/07/25 05:23:26;;;;;;;9.20;3.97;;;;;;;-145.07;100.00;61000.34;5088120;28;20044;-59
2023/07/25 05:25:53;;;;;;;14.75;4.80;;;;;;;-145.07;100.00;61000.34;5089443;28;20123;-57
2023/07/25 05:28:19;;;;;;;16.80;3.72;;;;;;;-145.07;100.00;61000.34;5090537;28;20044;-58
2023/07/25 05:30:46;;;;;;;9.10;3.78;;;;;;;-145.07;100.00;61000.34;5090348;28;20479;-58
2023/07/25 05:33:12;;;;;;;11.95;4.13;;;;;;;-145.07;100.00;61000.34;5079353;28;20040;-58
2023/07/25 05:35:39;;;;;;;12.98;4.50;;;;;;;-145.07;100.00;61000.34;5088391;28;20642;-58
2023/07/25 05:38:07;;;;;;;13.68;4.75;;;;;;;-145.07;100.00;61000.34;5089749;28;20456;-58
2023/07/25 05:40:35;;;;;;;15.55;3.72;;;;;;;-145.07;100.00;61000.34;5089935;28;20435;-58
2023/07/25 05:43:03;;;;;;;12.15;3.58;;;;;;;-145.07;100.00;61000.34;5087930;28;20048;-59
2023/07/25 05:45:29;;;;;;;12.15;4.13;;;;;;;-145.07;100.00;61000.34;5089879;28;20089;-59
2023/07/25 05:47:56;;;;;;;7.32;4.00;;;;;;;-145.07;100.00;61000.34;5089469;28;20071;-59
2023/07/25 05:50:22;;;;;;;12.98;3.92;;;;;;;-145.07;100.00;61000.34;5087531;28;20067;-58
2023/07/25 05:52:49;;;;;;;16.23;4.68;;;;;;;-145.07;100.00;61000.34;5080820;28;20067;-59
2023/07/25 05:55:15;;;;;;;7.82;3.67;;;;;;;-145.07;100.00;61000.34;5089638;28;20048;-58
2023/07/25 05:57:42;;;;;;;9.57;3.92;;;;;;;-145.07;100.00;61000.34;5089504;28;20169;-58
2023/07/25 06:00:09;;;;;;;7.88;3.42;;;;;;;-145.07;100.00;61000.34;5088541;28;20306;-58
2023/07/25 06:02:36;;;;;;;12.35;3.17;;;;;;;-145.07;100.00;61000.34;5090052;28;20059;-58
2023/07/25 06:05:03;;;;;;;15.02;3.88;;;;;;;-145.07;100.00;61000.34;5089933;28;20105;-59
2023/07/25 06:07:29;;;;;;;13.43;3.20;;;;;;;-145.07;100.00;61000.34;5089754;28;20134;-59
2023/07/25 06:09:56;;;;;;;7.97;3.30;;;;;;;-145.07;100.00;61000.34;5080391;28;20192;-58
2023/07/25 06:12:22;;;;;;;5.05;2.45;;;;;;;-145.07;100.00;61000.34;5090018;28;20054;-58
2023/07/25 06:14:50;;;;;;;9.43;3.08;;;;;;;-145.07;100.00;61000.34;5088677;28;20055;-59
2023/07/25 06:17:17;;;;;;;11.88;2.97;;;;;;;-145.07;100.00;61000.34;5087644;28;20052;-58
2023/07/25 06:19:43;;;;;;;16.13;3.53;;;;;;;-145.07;100.00;61000.34;5078152;28;20064;-58
2023/07/25 06:22:14;;;;;;;14.60;3.87;;;;;;;-145.07;100.00;61000.34;5089341;28;20083;-58
2023/07/25 06:24:41;;;;;;;10.70;3.20;;;;;;;-145.07;100.00;61000.34;5088568;28;20131;-58
2023/07/25 06:27:08;;;;;;;8.35;2.92;;;;;;;-145.07;100.00;61000.34;5087173;28;20048;-58
2023/07/25 06:29:34;;;;;;;6.95;2.90;;;;;;;-145.07;100.00;61000.34;5088474;28;20052;-58
2023/07/25 06:32:01;;;;;;;7.45;2.92;;;;;;;-145.07;100.00;61000.34;5088715;28;20062;-59
2023/07/25 06:34:27;;;;;;;12.05;3.05;;;;;;;-145.07;100.00;61000.34;5094185;28;20440;-59
2023/07/25 06:36:55;;;;;;;7.10;2.28;;;;;;;-145.07;100.00;61000.34;5077318;28;20143;-59
2023/07/25 06:39:22;;;;;;;9.60;2.97;;;;;;;-145.07;100.00;61000.34;5105998;28;20057;-59
2023/07/25 06:41:48;;;;;;;8.73;2.17;;;;;;;-145.07;100.00;61000.34;5088713;28;20517;-58
2023/07/25 06:44:15;;;;;;;6.97;2.53;;;;;;;-145.07;100.00;61000.34;5088548;28;20119;-58
2023/07/25 06:46:41;;;;;;;11.27;3.55;;;;;;;-145.07;100.00;61000.34;5086978;28;20639;-59
2023/07/25 06:49:08;;;;;;;5.22;2.08;;;;;;;-145.07;100.00;61000.34;5087820;28;20451;-59
2023/07/25 06:51:34;;;;;;;6.47;2.35;;;;;;;-145.07;100.00;61000.34;5088805;28;20405;-59
2023/07/25 06:54:01;;;;;;;9.32;2.38;;;;;;;-145.07;100.00;61000.34;5086457;28;20044;-59
2023/07/25 06:56:28;;;;;;;10.30;3.30;;;;;;;-145.07;100.00;61000.34;5087850;28;20052;-58
2023/07/25 06:58:54;;;;;;;18.08;3.17;;;;;;;-145.07;100.00;61000.34;5088231;28;20458;-58
2023/07/25 07:01:21;;;;;;;9.30;2.72;;;;;;;-145.07;100.00;61000.34;5087900;28;20762;-59
2023/07/25 07:03:47;;;;;;;8.65;2.40;;;;;;;-145.07;100.00;61000.34;5086565;28;20479;-58
2023/07/25 07:06:14;;;;;;;11.35;3.45;;;;;;;-145.07;100.00;61000.34;5085991;28;20052;-59
2023/07/25 07:08:40;;;;;;;9.73;2.85;;;;;;;-145.07;100.00;61000.34;5088559;28;20477;-58
2023/07/25 07:11:07;;;;;;;6.80;2.65;;;;;;;-145.07;100.00;61000.34;5088347;28;20059;-59
2023/07/25 07:13:33;;;;;;;8.07;3.30;;;;;;;-145.07;100.00;61000.34;5087696;28;20048;-58
2023/07/25 07:16:00;;;;;;;6.00;1.92;;;;;;;-145.07;100.00;61000.34;5092778;27;20051;-58
2023/07/25 07:18:30;;;;;;;7.65;2.25;;;;;;;-145.07;100.00;61000.34;5088465;28;20395;-59
2023/07/25 07:20:56;;;;;;;5.68;2.45;;;;;;;-145.07;100.00;61000.34;5086334;28;20084;-58
2023/07/25 07:23:23;;;;;;;10.20;2.85;;;;;;;-145.07;100.00;61000.34;5088177;28;20056;-58
2023/07/25 07:25:50;;;;;;;8.95;1.95;;;;;;;-145.07;100.00;61000.34;5087974;28;20051;-58
2023/07/25 07:28:17;;;;;;;7.03;2.40;;;;;;;-145.07;100.00;61000.34;5087348;28;20101;-57
2023/07/25 07:30:50;;;;;;;5.57;2.10;;;;;;;-145.07;100.00;61000.34;5082370;28;20051;-58
2023/07/25 07:33:18;;;;;;;6.63;1.88;;;;;;;-145.07;100.00;61000.34;5082039;28;20460;-58
2023/07/25 07:35:45;;;;;;;8.35;2.45;;;;;;;-145.07;100.00;61000.34;5087546;28;20052;-57
2023/07/25 07:38:11;;;;;;;4.18;1.77;;;;;;;-145.07;100.00;61000.34;5087888;28;20048;-57
2023/07/25 07:40:38;;;;;;;7.38;2.40;;;;;;;-145.07;100.00;61000.34;5082565;28;20083;-57
2023/07/25 07:43:04;;;;;;;9.23;1.75;;;;;;;-145.07;100.00;61000.34;5087642;28;20126;-57
2023/07/25 07:45:31;;;;;;;8.73;2.13;;;;;;;-145.07;100.00;61000.34;5087266;28;20082;-58
2023/07/25 07:47:58;;;;;;;5.60;1.52;;;;;;;-145.07;100.00;61000.34;5085716;28;20052;-58
2023/07/25 07:50:28;;;;;;;8.52;2.13;;;;;;;-145.07;100.00;61000.34;5087053;28;20052;-58
2023/07/25 07:52:54;;;;;;;12.67;3.47;;;;;;;-145.07;100.00;61000.34;5087770;28;20147;-58
2023/07/25 07:55:21;;;;;;;5.47;2.30;;;;;;;-145.07;100.00;61000.34;5086732;28;20044;-58
2023/07/25 07:57:48;;;;;;;8.35;1.63;;;;;;;-145.07;100.00;61000.34;5085678;28;20121;-59
2023/07/25 08:00:15;;;;;;;3.72;1.55;;;;;;;-145.07;100.00;61000.34;5087064;28;20058;-57
2023/07/25 08:02:43;;;;;;;5.60;2.00;;;;;;;-145.07;100.00;61000.34;5087470;28;20048;-57
2023/07/25 08:05:11;;;;;;;6.63;2.60;;;;;;;-145.07;100.00;61000.34;5086772;28;20117;-58
2023/07/25 08:07:38;;;;;;;7.93;2.38;;;;;;;-145.07;100.00;61000.34;5070885;28;20360;-57
2023/07/25 08:10:06;;;;;;;5.47;1.63;;;;;;;-145.07;100.00;61000.34;5085882;28;20091;-57
2023/07/25 08:12:32;;;;;;;7.10;2.00;;;;;;;-145.07;100.00;61000.34;5087051;28;20109;-58
2023/07/25 08:14:59;;;;;;;5.75;2.55;;;;;;;-145.07;100.00;61000.34;5084868;28;20044;-58
2023/07/25 08:17:26;;;;;;;10.98;3.17;;;;;;;-145.07;100.00;61000.34;5087133;28;20122;-57
2023/07/25 08:19:52;;;;;;;11.40;1.80;;;;;;;-145.07;100.00;61000.34;5087177;28;20135;-58
2023/07/25 08:22:19;;;;;;;7.50;1.80;;;;;;;-145.07;100.00;61000.34;5086993;28;20044;-57
2023/07/25 08:24:46;;;;;;;5.88;1.63;;;;;;;-145.07;100.00;61000.34;5083168;28;20048;-57
2023/07/25 08:27:13;;;;;;;7.35;2.28;;;;;;;-145.07;100.00;61000.34;5086884;28;20056;-58
2023/07/25 08:29:41;;;;;;;9.77;1.98;;;;;;;-145.07;100.00;61000.34;5088028;28;20135;-57
2023/07/25 08:32:11;;;;;;;6.72;2.10;;;;;;;-145.07;100.00;61000.34;5086789;28;20431;-57
2023/07/25 08:34:38;;;;;;;5.72;2.40;;;;;;;-145.07;100.00;61000.34;5085132;28;20036;-59
2023/07/25 08:37:06;;;;;;;8.25;3.05;;;;;;;-145.07;100.00;61000.34;5086661;28;20051;-57
2023/07/25 08:39:34;;;;;;;6.78;2.42;;;;;;;-145.07;100.00;61000.34;5086946;28;20101;-59
2023/07/25 08:42:04;;;;;;;7.60;2.00;;;;;;;-145.07;100.00;61000.34;5084724;28;20109;-58
2023/07/25 08:44:33;;;;;;;5.60;2.10;;;;;;;-145.07;100.00;61000.34;5069159;28;20040;-59
2023/07/25 08:47:05;;;;;;;13.55;2.13;;;;;;;-145.07;100.00;61000.34;5086607;28;20063;-57
2023/07/25 08:49:35;;;;;;;5.15;2.03;;;;;;;-145.07;100.00;61000.34;5087256;28;20408;-59
2023/07/25 08:52:03;;;;;;;8.07;2.35;;;;;;;19.15;nan;100059.16;5085508;28;20094;-56
2023/07/25 08:54:32;;;;;;;5.80;1.90;;;;;;;19.69;nan;100058.63;5086196;28;20056;-57
2023/07/25 08:57:00;;;;;;;4.97;1.52;;;;;;;19.70;nan;100057.63;5086922;28;20075;-57
2023/07/25 08:59:27;;;;;;;4.78;2.83;;;;;;;19.60;nan;100060.38;5086367;28;20058;-59
2023/07/25 09:01:54;;;;;;;7.65;2.10;;;;;;;19.51;nan;100055.88;5088768;28;20601;-58
2023/07/25 09:04:23;;;;;;;9.10;2.08;;;;;;;19.42;nan;100058.44;5089756;28;20048;-58
2023/07/25 09:06:50;;;;;;;9.55;2.58;;;;;;;18.78;nan;100058.97;5090120;28;20120;-57
2023/07/25 09:09:16;;;;;;;6.93;2.10;;;;;;;18.44;nan;100062.91;5087038;28;20056;-58
2023/07/25 09:11:44;;;;;;;10.43;2.15;;;;;;;18.80;nan;100073.94;5090839;28;20047;-58
2023/07/25 09:14:14;;;;;;;4.57;1.80;;;;;;;19.30;nan;100085.50;5089641;28;20549;-57
2023/07/25 09:16:41;;;;;;;6.53;2.30;;;;;;;18.86;nan;100084.13;5090068;28;20056;-57
2023/07/25 09:19:08;;;;;;;14.38;2.42;;;;;;;19.26;nan;100080.44;5083948;28;20492;-58
2023/07/25 09:21:48;;;;;;;8.93;2.45;;;;;;;19.28;nan;100087.50;5073944;28;20417;-58
2023/07/25 09:24:15;;;;;;;6.40;2.35;;;;;;;19.50;nan;100092.56;5089548;28;20048;-58
2023/07/25 09:26:50;;;;;;;7.72;1.92;;;;;;;19.84;nan;100078.66;5089899;28;20048;-57
2023/07/25 09:29:26;;;;;;;4.57;2.05;;;;;;;19.96;nan;100088.22;5087585;28;20460;-57
2023/07/25 09:31:53;;;;;;;3.33;1.55;;;;;;;19.49;nan;100104.25;5089847;28;20052;-58
2023/07/25 09:34:23;;;;;;;5.70;2.10;;;;;;;19.86;nan;100102.63;5089422;28;20422;-58
2023/07/25 09:36:50;;;;;;;6.07;1.92;;;;;;;19.98;nan;100106.84;5081823;28;20048;-57
2023/07/25 09:39:17;;;;;;;8.35;2.35;;;;;;;19.53;nan;100107.47;5069725;28;20499;-58
2023/07/25 09:41:45;;;;;;;9.13;2.40;;;;;;;19.68;nan;100127.50;5089011;28;20479;-58
2023/07/25 09:44:12;;;;;;;7.13;1.52;;;;;;;20.12;nan;100116.25;5088911;28;20052;-58
2023/07/25 09:46:39;;;;;;;6.10;2.28;;;;;;;19.53;nan;100113.69;5087823;28;20059;-58
2023/07/25 09:49:05;;;;;;;12.55;2.47;;;;;;;19.38;nan;100109.75;5089216;28;20059;-58
2023/07/25 09:51:33;;;;;;;3.78;1.40;;;;;;;19.10;nan;100111.47;5089258;28;20557;-57
2023/07/25 09:54:05;;;;;;;5.93;1.77;;;;;;;18.91;nan;100106.94;5088793;28;20056;-57
2023/07/25 09:56:32;;;;;;;8.18;2.10;;;;;;;19.00;nan;100103.44;5089633;28;20066;-57
2023/07/25 09:58:59;;;;;;;8.43;2.33;;;;;;;19.38;nan;100099.03;5090231;28;20048;-57
2023/07/25 10:01:33;;;;;;;6.28;1.70;;;;;;;19.21;nan;100101.47;5109192;28;20039;-57
2023/07/25 10:04:00;;;;;;;4.70;1.70;;;;;;;19.75;nan;100111.69;5082561;28;20553;-58
2023/07/25 10:06:27;;;;;;;4.53;1.85;;;;;;;20.23;nan;100088.38;5090237;28;20052;-57
2023/07/25 10:08:56;;;;;;;4.88;1.50;;;;;;;20.42;nan;100092.81;5089126;28;20063;-57
2023/07/25 10:11:24;;;;;;;4.88;2.17;;;;;;;19.93;nan;100083.13;5083940;28;20108;-59
2023/07/25 10:13:51;;;;;;;3.75;1.55;;;;;;;20.77;nan;100086.66;5088978;28;20450;-57
2023/07/25 10:16:19;;;;;;;7.22;1.80;;;;;;;20.78;nan;100095.59;5084119;28;20056;-57
2023/07/25 10:18:53;;;;;;;7.55;1.70;;;;;;;19.71;nan;100078.09;5077342;28;20549;-58
2023/07/25 10:21:26;;;;;;;5.60;1.55;;;;;;;20.13;nan;100083.06;5087858;28;20063;-57
2023/07/25 10:24:02;;;;;;;8.65;1.90;;;;;;;20.36;nan;100089.72;5073554;28;20056;-57
2023/07/25 10:26:29;;;;;;;5.88;1.65;;;;;;;20.52;nan;100088.22;5087565;28;20048;-57
2023/07/25 10:28:59;;;;;;;5.60;1.55;;;;;;;20.21;nan;100079.66;5087213;28;20058;-58
2023/07/25 10:31:34;;;;;;;6.93;1.42;;;;;;;20.01;nan;100079.72;5088686;28;20051;-57
2023/07/25 10:34:02;;;;;;;5.18;1.80;;;;;;;19.94;nan;100078.63;5109108;28;20186;-59
2023/07/25 10:36:28;;;;;;;8.05;2.70;;;;;;;19.74;nan;100077.81;5084860;28;20358;-58
2023/07/25 10:39:08;;;;;;;7.18;1.80;;;;;;;19.19;nan;100084.69;5083800;28;20404;-58
2023/07/25 10:41:35;;;;;;;6.18;1.90;;;;;;;19.41;nan;100083.53;5088663;28;20377;-58
2023/07/25 10:44:02;;;;;;;3.95;1.65;;;;;;;19.02;nan;100093.41;5087242;28;20064;-57
2023/07/25 10:46:33;;;;;;;4.28;1.77;;;;;;;19.60;nan;100093.38;5086617;28;20055;-57
2023/07/25 10:49:04;;;;;;;;;;;;;;;19.83;nan;100089.50;5087997;28;20056;-58
2023/07/25 10:52:02;;;;;;;6.33;1.73;;;;;;;20.55;nan;100087.94;5095784;28;19926;-56
2023/07/25 10:54:29;;;;;;;4.72;2.10;;;;;;;20.97;nan;100081.16;5083090;28;20047;-58
2023/07/25 10:57:17;;;;;;;11.40;2.08;;;;;;;19.80;nan;100072.75;5089236;28;20059;-58
2023/07/25 11:00:09;;;;;;;9.18;1.83;;;;;;;20.67;nan;100080.53;5072482;28;20052;-58
2023/07/25 11:02:44;;;;;;;5.90;1.80;;;;;;;20.42;nan;100071.34;5090634;28;20071;-57
2023/07/25 11:05:13;;;;;;;10.07;2.22;;;;;;;20.84;nan;100081.53;5090503;28;20043;-57
2023/07/25 11:07:49;;;;;;;4.50;1.75;;;;;;;21.42;nan;100078.34;5088065;28;20062;-57
2023/07/25 11:10:25;;;;;;;5.88;1.45;;;;;;;21.19;nan;100064.56;5083645;28;20047;-56
2023/07/25 11:12:57;;;;;;;2.67;1.52;;;;;;;21.41;nan;100062.38;5083805;28;20402;-57